Flight Track Log - Related Links

Times and Time Zones

All times are in EDT time to prevent confusion due to time zone crossing. See the JBU51 flight status page for this flight to view local times or setup timezone preferences in your user account.


Time Position Orientation Groundspeed Altitude Reporting Facility
EDT Latitude Longitude Course Direction KTS MPH feet Rate Location/Type
Tue 11:42:00 AM 44.0090 -73.3193 194° South  Level FlightAware Approximate
Tue 11:42:07 AM 44.2744 -73.3361 196° South 288 331 7,100  Level Boston Center
Tue 11:43:00 AM 43.9319 -73.3449 193° South  Level FlightAware Approximate
Tue 11:43:07 AM 44.1953 -73.3581 191° South 293 337 8,200  Level Boston Center
Tue 11:44:00 AM 43.8556 -73.3745 196° South  Level FlightAware Approximate
Tue 11:44:07 AM 44.1158 -73.3742 188° South 298 343 10,000  Level Boston Center
Tue 11:45:00 AM 43.7795 -73.4051 196° South  Level FlightAware Approximate
Tue 11:45:07 AM 44.0239 -73.3928 188° South 320 368 12,300  Level Boston Center
Tue 11:46:00 AM 43.7034 -73.4355 196° South  Level FlightAware Approximate
Tue 11:46:07 AM 43.9300 -73.4117 188° South 339 390 14,800  Level Boston Center
Tue 11:47:00 AM 43.6272 -73.4659 196° South  Level FlightAware Approximate
Tue 11:47:07 AM 43.8319 -73.4300 188° South 357 411 17,700  Level Boston Center
Tue 11:48:07 AM 43.7192 -73.4514 188° South 363 418 20,200 2,150 Climbing Boston Center
Tue 11:49:07 AM 43.6275 -73.4642 186° South 372 428 22,000 900 Climbing Boston Center
Tue 11:50:07 AM 43.5231 -73.4853 188° South 372 428 22,000  Level Boston Center
Tue 11:51:07 AM 43.4186 -73.5006 186° South 372 428 22,000  Level Boston Center
Tue 11:52:07 AM 43.3103 -73.5214 188° South 377 434 22,000 200 Level Boston Center
Tue 11:53:07 AM 43.2058 -73.5425 188° South 387 445 22,400 500 Climbing Boston Center
Tue 11:54:07 AM 43.0847 -73.5686 189° South 396 456 23,000 300 Climbing Boston Center
Tue 11:55:07 AM 42.9781 -73.5867 187° South 396 456 23,000  Level Boston Center
Tue 11:56:07 AM 42.8675 -73.6072 188° South 401 461 23,000 500 Level Boston Center
Tue 11:57:07 AM 42.7714 -73.6281 189° South 395 455 24,000 500 Climbing Boston Center
Tue 11:58:07 AM 42.6608 -73.6483 188° South 395 455 24,000  Level Boston Center
Tue 11:59:07 AM 42.5500 -73.6689 188° South 400 460 24,000  Level Boston Center
Tue 12:00:07 PM 42.4475 -73.7092 196° South 400 460 24,000  Level Boston Center
Tue 12:01:07 PM 42.3508 -73.7717 206° Southwest 389 448 24,000  Level Boston Center
Tue 12:02:07 PM 42.2503 -73.8283 203° Southwest 389 448 24,000  Level Boston Center
Tue 12:03:07 PM 42.1456 -73.8708 197° South 394 453 24,000  Level Boston Center
Tue 12:04:07 PM 42.0347 -73.8992 191° South 399 459 24,000 -293 Level Boston Center
Tue 12:05:51 PM 41.8392 -73.9478 190° South 397 457 23,200 -630 Descending New York Center
Tue 12:06:49 PM 41.7367 -73.9733 191° South 391 450 22,300 -958 Descending New York Center
Tue 12:07:50 PM 41.6297 -74.0017 191° South 386 444 21,300 -942 Descending New York Center
Tue 12:08:50 PM 41.5394 -74.0250 191° South 386 444 20,400 -650 Descending New York Center
Tue 12:09:50 PM 41.4347 -74.0531 191° South 386 444 20,000 -198 Descending New York Center
Tue 12:10:51 PM 41.3317 -74.0839 193° South 386 444 20,000 -151 Level New York Center
Tue 12:11:49 PM 41.2250 -74.0978 186° South 386 444 19,700 -504 Descending New York Center
Tue 12:12:50 PM 41.1081 -74.1142 186° South 393 452 19,000 -447 Descending New York Center
Tue 12:13:23 PM 41.0500 -74.1167 182° South 375 432 19,000  Level New York TRACON
Tue 12:14:23 PM 40.9500 -74.1333 187° South 339 390 19,000 -750 Level New York TRACON
Tue 12:15:23 PM 40.8833 -74.0500 137° Southeast 331 381 17,500 -1,850 Descending New York TRACON
Tue 12:16:23 PM 40.8167 -73.9500 131° Southeast 341 392 15,300 -2,158 Descending New York TRACON
Tue 12:17:17 PM 40.7833 -73.8667 118° Southeast 327 376 13,400 -1,278 Descending New York TRACON
Tue 12:18:11 PM 40.7333 -73.7833 128° Southeast 293 337 13,000 -632 Descending New York TRACON
Tue 12:19:11 PM 40.6667 -73.7167 143° Southeast 335 386 12,200 -1,700 Descending New York TRACON
Tue 12:20:11 PM 40.5833 -73.6833 163° South 299 344 9,600 -2,571 Descending New York TRACON
Tue 12:21:17 PM 40.5000 -73.7000 189° South 286 329 6,800 -2,190 Descending New York TRACON
Tue 12:22:17 PM 40.4333 -73.7333 201° Southwest 270 311 5,000 -1,400 Descending New York TRACON
Tue 12:23:17 PM 40.4000 -73.8000 237° Southwest 268 308 4,000 -762 Descending New York TRACON
Tue 12:24:23 PM 40.4333 -73.9000 294° West 274 315 3,400 -526 Descending New York TRACON
Tue 12:25:11 PM 40.4667 -73.9500 311° West 245 282 3,000 -222 Descending New York TRACON
Tue 12:26:11 PM 40.5167 -73.9667 346° North 240 276 3,000 -429 Level New York TRACON
Tue 12:27:17 PM 40.5833 -73.9167 30° Northeast 203 234 2,100 -818 Descending New York TRACON

Login

Don't have an account? Register now (free) for customized features, flight alerts, and more!